Time;durP1;ratioP1;P1;durP2;ratioP2;P2;SDS_P1;SDS_P2;PMS_P1;PMS_P2;Temp;Humidity;BMP_temperature;BMP_pressure;BME280_temperature;BME280_humidity;BME280_pressure;Samples;Min_cycle;Max_cycle;Signal;HPM_P1;HPM_P2
2021/05/05 00:00:31;;;;;;;16.75;11.35;;;5.70;99.90;;;;;;21078208;28;20493;-44
2021/05/05 00:10:32;;;;;;;16.38;10.38;;;5.70;99.90;;;;;;21077083;28;20101;-48
2021/05/05 00:20:35;;;;;;;17.13;9.60;;;6.30;99.90;;;;;;21076311;28;20523;-45
2021/05/05 00:30:37;;;;;;;18.38;13.10;;;6.10;99.90;;;;;;21075213;28;20044;-45
2021/05/05 00:40:38;;;;;;;18.15;10.48;;;5.90;99.90;;;;;;21074947;28;20032;-51
2021/05/05 00:50:40;;;;;;;17.75;10.70;;;6.20;99.90;;;;;;21074325;28;20044;-46
2021/05/05 01:00:45;;;;;;;18.50;11.02;;;6.00;99.90;;;;;;21073543;28;20032;-45
2021/05/05 01:10:48;;;;;;;17.90;11.88;;;5.90;99.90;;;;;;21073047;28;20032;-46
2021/05/05 01:21:00;;;;;;;15.70;10.07;;;6.20;99.90;;;;;;21071140;28;20044;-45
2021/05/05 01:31:03;;;;;;;18.13;10.40;;;6.10;99.90;;;;;;21070897;28;20473;-44
2021/05/05 01:41:05;;;;;;;18.42;10.20;;;6.00;99.90;;;;;;21070832;28;20116;-44
2021/05/05 01:51:07;;;;;;;18.85;11.27;;;5.60;99.90;;;;;;21069721;28;20036;-44
2021/05/05 02:01:09;;;;;;;20.33;11.18;;;5.70;99.90;;;;;;21085559;28;20044;-45
2021/05/05 02:11:12;;;;;;;17.98;10.35;;;5.50;99.90;;;;;;21086957;28;20112;-44
2021/05/05 02:21:14;;;;;;;19.60;12.50;;;5.20;99.90;;;;;;21085929;28;20105;-48
2021/05/05 02:31:16;;;;;;;19.83;11.70;;;5.20;99.90;;;;;;21085216;28;20089;-44
2021/05/05 02:41:19;;;;;;;20.13;12.73;;;5.30;99.90;;;;;;21082907;28;20032;-45
2021/05/05 02:51:23;;;;;;;19.02;12.75;;;5.60;99.90;;;;;;21083510;28;20032;-46
2021/05/05 03:01:25;;;;;;;18.63;11.93;;;5.40;99.90;;;;;;21082749;28;20044;-45
2021/05/05 03:11:27;;;;;;;18.67;10.85;;;5.30;99.90;;;;;;21080712;28;20036;-45
2021/05/05 03:21:29;;;;;;;17.15;11.45;;;5.20;99.90;;;;;;21081925;28;20031;-45
2021/05/05 03:31:33;;;;;;;20.10;12.32;;;5.20;99.90;;;;;;21080352;28;20028;-46
2021/05/05 03:41:35;;;;;;;17.65;11.32;;;5.00;99.90;;;;;;21079495;28;20093;-44
2021/05/05 03:51:37;;;;;;;18.88;11.63;;;4.80;99.90;;;;;;21078617;28;20058;-44
2021/05/05 04:01:39;;;;;;;18.75;11.65;;;4.60;99.90;;;;;;21078248;28;20477;-50
2021/05/05 04:11:41;;;;;;;23.08;12.50;;;4.20;99.90;;;;;;21075602;28;20093;-45
2021/05/05 04:21:43;;;;;;;24.15;13.13;;;3.80;99.90;;;;;;21076238;28;20032;-44
2021/05/05 04:31:47;;;;;;;23.13;13.50;;;3.80;99.90;;;;;;21075185;28;20482;-44
2021/05/05 04:41:49;;;;;;;23.33;12.48;;;4.10;99.90;;;;;;21074913;28;20028;-46
2021/05/05 04:51:55;;;;;;;20.30;11.23;;;4.50;99.90;;;;;;21075549;28;20473;-44
2021/05/05 05:01:57;;;;;;;18.80;11.32;;;4.70;99.90;;;;;;21073561;28;20044;-45
2021/05/05 05:12:00;;;;;;;16.23;9.95;;;5.00;99.90;;;;;;21073150;28;20036;-48
2021/05/05 05:22:02;;;;;;;11.07;8.00;;;5.10;99.90;;;;;;21072665;28;20062;-45
2021/05/05 05:32:04;;;;;;;12.23;6.90;;;5.50;99.90;;;;;;21071418;28;20036;-44
2021/05/05 05:42:05;;;;;;;15.63;9.02;;;6.10;99.90;;;;;;21071871;28;20085;-49
2021/05/05 05:52:07;;;;;;;11.43;6.60;;;6.30;99.90;;;;;;21069901;28;20439;-45
2021/05/05 06:02:10;;;;;;;12.48;6.60;;;6.90;99.90;;;;;;21070862;28;20442;-45
2021/05/05 06:12:12;;;;;;;10.52;7.13;;;7.20;99.90;;;;;;21070662;28;20101;-44
2021/05/05 06:22:13;;;;;;;11.15;6.35;;;7.10;99.90;;;;;;21070150;28;20044;-45
2021/05/05 06:32:15;;;;;;;7.22;4.80;;;7.90;99.90;;;;;;21069729;28;20093;-46
2021/05/05 06:42:17;;;;;;;6.05;4.50;;;12.20;99.90;;;;;;21076016;28;20040;-46
2021/05/05 06:52:19;;;;;;;4.72;3.70;;;15.40;99.90;;;;;;21083685;28;20032;-46
2021/05/05 07:02:20;;;;;;;5.82;4.28;;;15.00;99.90;;;;;;21083115;28;20437;-47
2021/05/05 07:12:22;;;;;;;10.50;5.25;;;13.40;99.90;;;;;;21082523;28;20036;-45
2021/05/05 07:22:24;;;;;;;8.73;5.35;;;12.10;99.90;;;;;;21081401;28;20044;-45
2021/05/05 07:32:26;;;;;;;9.90;5.95;;;11.90;99.90;;;;;;21080547;28;20044;-46
2021/05/05 07:52:29;;;;;;;8.35;5.50;;;13.30;99.90;;;;;;21078093;28;20036;-45
2021/05/05 08:02:31;;;;;;;7.47;5.63;;;12.30;99.90;;;;;;21078514;28;20052;-46
2021/05/05 08:12:34;;;;;;;12.75;5.55;;;12.20;99.90;;;;;;21077230;28;20052;-45
2021/05/05 08:22:35;;;;;;;10.43;6.10;;;12.10;99.90;;;;;;21076577;28;20043;-45
2021/05/05 08:32:37;;;;;;;8.98;6.47;;;11.40;99.90;;;;;;21075272;28;20474;-48
2021/05/05 08:42:41;;;;;;;9.43;5.43;;;11.50;99.90;;;;;;21074801;28;20056;-45
2021/05/05 08:52:44;;;;;;;6.45;5.10;;;12.00;99.90;;;;;;21156410;28;20392;-45
2021/05/05 09:02:46;;;;;;;4.45;3.35;;;13.30;99.90;;;;;;21156901;28;20552;-45
2021/05/05 09:12:51;;;;;;;5.28;4.22;;;14.30;99.90;;;;;;21157157;28;20085;-46
2021/05/05 09:22:56;;;;;;;8.25;5.93;;;15.00;99.90;;;;;;21156690;28;20100;-45
2021/05/05 09:32:57;;;;;;;9.05;5.65;;;13.90;99.90;;;;;;21157398;28;20393;-45
2021/05/05 09:43:16;;;;;;;9.45;6.60;;;12.90;99.90;;;;;;21155774;28;20088;-45
2021/05/05 09:53:22;;;;;;;8.50;5.40;;;13.00;99.90;;;;;;21154421;28;20101;-46
2021/05/05 10:03:42;;;;;;;8.25;4.28;;;12.90;99.90;;;;;;21154836;28;20052;-45
2021/05/05 10:13:55;;;;;;;5.95;4.80;;;13.70;99.90;;;;;;21155983;28;20040;-45
2021/05/05 10:23:59;;;;;;;7.13;4.03;;;14.40;99.90;;;;;;21170314;28;20061;-49
2021/05/05 10:34:04;;;;;;;4.45;2.78;;;14.90;99.90;;;;;;21169138;28;20088;-46
2021/05/05 10:44:06;;;;;;;5.22;3.58;;;16.00;99.90;;;;;;21168933;28;20088;-45
2021/05/05 10:54:08;;;;;;;6.03;3.92;;;16.00;99.90;;;;;;21167970;28;20431;-45
2021/05/05 11:04:14;;;;;;;10.48;4.68;;;15.50;99.90;;;;;;21166834;28;20047;-45
2021/05/05 11:14:32;;;;;;;10.10;6.28;;;14.50;99.90;;;;;;21167050;28;20040;-45
2021/05/05 11:24:40;;;;;;;11.57;7.82;;;13.00;99.90;;;;;;21166025;28;20053;-46
2021/05/05 11:34:45;;;;;;;10.30;7.90;;;12.20;99.90;;;;;;21164893;28;20035;-47
2021/05/05 11:45:17;;;;;;;9.90;8.27;;;12.50;99.90;;;;;;21163925;28;20043;-45
2021/05/05 11:55:27;;;;;;;12.05;9.10;;;12.40;99.90;;;;;;21163007;28;20089;-45
2021/05/05 12:05:33;;;;;;;10.17;8.10;;;12.20;99.90;;;;;;21162238;28;20466;-45
2021/05/05 12:15:39;;;;;;;13.60;9.38;;;12.30;99.90;;;;;;21161193;28;20080;-45
2021/05/05 12:25:41;;;;;;;11.23;8.52;;;12.10;99.90;;;;;;21159843;28;20084;-44
2021/05/05 12:35:43;;;;;;;12.90;9.23;;;12.20;99.90;;;;;;21159560;28;20035;-46
2021/05/05 12:45:49;;;;;;;11.15;7.40;;;11.70;99.90;;;;;;21158760;28;20396;-45
2021/05/05 12:55:57;;;;;;;12.73;8.48;;;11.50;99.90;;;;;;21157700;28;20084;-46
2021/05/05 13:06:03;;;;;;;10.57;8.30;;;11.30;99.90;;;;;;21139574;28;20043;-45
2021/05/05 13:36:58;;;;;;;12.35;8.40;;;10.20;99.90;;;;;;21156368;28;20093;-46
2021/05/05 13:47:44;;;;;;;11.32;8.07;;;10.60;99.90;;;;;;21155947;28;20027;-45
2021/05/05 13:57:28;;;;;;;10.00;7.10;;;10.70;99.90;;;;;;21167105;28;20081;-45
2021/05/05 14:07:32;;;;;;;7.90;4.97;;;10.60;99.90;;;;;;21171833;28;20031;-46
2021/05/05 14:17:41;;;;;;;13.45;6.30;;;10.60;99.90;;;;;;21170834;28;20445;-44
2021/05/05 14:27:43;;;;;;;9.23;6.22;;;10.80;99.90;;;;;;21170564;28;20031;-45
2021/05/05 14:37:46;;;;;;;12.95;8.30;;;10.80;99.90;;;;;;21169540;28;20148;-45
2021/05/05 14:58:07;;;;;;;10.20;7.15;;;10.60;99.90;;;;;;21083256;28;20465;-44
2021/05/05 15:08:14;;;;;;;14.93;8.27;;;10.60;99.90;;;;;;21082652;28;20398;-45
2021/05/05 15:48:44;;;;;;;15.93;9.18;;;10.70;99.90;;;;;;21086344;28;20035;-45
2021/05/05 15:59:09;;;;;;;13.50;9.63;;;10.50;99.90;;;;;;21163373;28;20040;-45
2021/05/05 16:10:05;;;;;;;15.55;10.10;;;10.40;99.90;;;;;;21162353;28;20446;-45
2021/05/05 16:19:46;;;;;;;15.50;9.77;;;10.30;99.90;;;;;;21137284;28;20477;-45
2021/05/05 17:10:58;;;;;;;16.98;11.05;;;9.80;99.90;;;;;;21158338;28;20039;-45
2021/05/05 17:21:08;;;;;;;18.08;12.05;;;9.70;99.90;;;;;;21158206;28;20081;-44
2021/05/05 18:33:01;;;;;;;20.00;12.00;;;7.90;99.90;;;;;;21035442;28;20032;-45
2021/05/05 18:43:14;;;;;;;19.80;12.95;;;7.60;99.90;;;;;;21082318;28;20078;-45
2021/05/05 20:47:22;;;;;;;9.17;6.10;;;5.40;99.90;;;;;;21141157;28;20028;-45
